Time;durP1;ratioP1;P1;durP2;ratioP2;P2;SDS_P1;SDS_P2;PMS_P1;PMS_P2;Temp;Humidity;BMP_temperature;BMP_pressure;BME280_temperature;BME280_humidity;BME280_pressure;Samples;Min_cycle;Max_cycle;Signal;HPM_P1;HPM_P2
2021/08/25 00:02:04;;;;;;;6.68;2.10;;;;;;;10.64;100.00;101635.56;5057990;28;20029;-79
2021/08/25 00:04:29;;;;;;;6.97;2.38;;;;;;;10.67;100.00;101627.78;5056567;28;20401;-79
2021/08/25 00:06:54;;;;;;;5.60;2.22;;;;;;;10.61;100.00;101632.97;5056592;28;20036;-79
2021/08/25 00:09:20;;;;;;;6.40;2.47;;;;;;;10.66;100.00;101628.66;5055179;28;20095;-78
2021/08/25 00:11:45;;;;;;;5.88;2.25;;;;;;;10.76;100.00;101625.19;5056768;28;20527;-79
2021/08/25 00:14:10;;;;;;;5.82;2.03;;;;;;;10.69;100.00;101626.06;5056211;28;20029;-78
2021/08/25 00:16:36;;;;;;;5.65;2.20;;;;;;;10.64;100.00;101617.41;5055853;28;20076;-78
2021/08/25 00:19:01;;;;;;;5.45;2.03;;;;;;;10.60;100.00;101610.50;5055246;28;20028;-78
2021/08/25 00:21:26;;;;;;;7.22;2.30;;;;;;;10.56;100.00;101608.78;5054643;28;20031;-78
2021/08/25 00:23:51;;;;;;;8.07;2.40;;;;;;;10.46;100.00;101607.91;5054732;28;20025;-78
2021/08/25 00:26:17;;;;;;;6.75;2.28;;;;;;;10.47;100.00;101601.03;5054527;28;20052;-78
2021/08/25 00:28:42;;;;;;;4.90;1.80;;;;;;;10.38;100.00;101598.44;5055649;28;20051;-78
2021/08/25 00:31:07;;;;;;;4.47;1.85;;;;;;;10.35;100.00;101602.75;5056118;28;20021;-78
2021/08/25 00:33:32;;;;;;;6.32;1.95;;;;;;;10.30;100.00;101601.88;5056252;28;20028;-78
2021/08/25 00:35:58;;;;;;;6.10;2.22;;;;;;;10.22;100.00;101598.41;5055700;28;20469;-78
2021/08/25 00:38:23;;;;;;;4.88;1.95;;;;;;;10.17;100.00;101601.88;5055659;28;20025;-78
2021/08/25 00:40:48;;;;;;;7.13;2.38;;;;;;;10.17;100.00;101599.28;5054953;28;20032;-78
2021/08/25 00:43:14;;;;;;;7.75;2.10;;;;;;;10.11;100.00;101601.00;5054549;28;20374;-79
2021/08/25 00:45:41;;;;;;;4.88;1.92;;;;;;;10.09;100.00;101601.84;5055885;28;20020;-79
2021/08/25 00:48:07;;;;;;;7.97;2.40;;;;;;;10.08;100.00;101595.81;5056152;28;20032;-79
2021/08/25 00:50:32;;;;;;;6.30;2.80;;;;;;;10.16;100.00;101595.81;5055400;28;20029;-79
2021/08/25 00:52:58;;;;;;;6.22;1.83;;;;;;;10.23;100.00;101584.56;5055192;28;20021;-78
2021/08/25 00:55:23;;;;;;;7.15;2.28;;;;;;;10.09;100.00;101586.28;5055300;28;20025;-79
2021/08/25 00:57:49;;;;;;;4.75;1.88;;;;;;;10.18;100.00;101583.69;5054919;28;20424;-79
2021/08/25 01:00:15;;;;;;;6.45;2.22;;;;;;;10.30;100.00;101578.53;5055014;28;20035;-79
2021/08/25 01:02:47;;;;;;;5.32;2.10;;;;;;;10.21;100.00;101573.34;5053559;28;20070;-79
2021/08/25 01:05:14;;;;;;;5.65;1.95;;;;;;;10.02;100.00;101580.25;5055139;28;20401;-79
2021/08/25 01:07:42;;;;;;;5.30;2.10;;;;;;;9.99;100.00;101571.59;5055575;28;20025;-79
2021/08/25 01:10:24;;;;;;;6.90;2.20;;;;;;;9.97;100.00;101571.59;5054082;28;20051;-79
2021/08/25 01:12:50;;;;;;;6.15;2.17;;;;;;;9.94;100.00;101569.00;5055651;28;20032;-79
2021/08/25 01:15:16;;;;;;;6.43;2.50;;;;;;;9.91;100.00;101567.28;5055197;28;20028;-79
2021/08/25 01:17:43;;;;;;;7.07;1.98;;;;;;;9.99;100.00;101556.91;5054791;28;20029;-78
2021/08/25 01:20:11;;;;;;;6.97;2.75;;;;;;;10.00;100.00;101562.97;5053667;28;20046;-78
2021/08/25 01:22:39;;;;;;;5.63;1.98;;;;;;;9.90;100.00;101560.38;5054794;28;20029;-78
2021/08/25 01:25:05;;;;;;;5.47;2.22;;;;;;;9.88;100.00;101554.34;5054775;28;20025;-78
2021/08/25 01:27:33;;;;;;;5.63;2.00;;;;;;;9.83;100.00;101552.59;5055423;28;20393;-78
2021/08/25 01:29:59;;;;;;;10.13;2.42;;;;;;;9.97;100.00;101539.63;5054656;28;20029;-78
2021/08/25 01:32:26;;;;;;;8.00;2.10;;;;;;;9.86;100.00;101548.28;5053466;28;20400;-78
2021/08/25 01:34:56;;;;;;;5.25;2.33;;;;;;;9.86;100.00;101543.09;5054789;28;20031;-78
2021/08/25 01:37:26;;;;;;;8.57;2.30;;;;;;;10.00;100.00;101531.84;5054906;28;20077;-78
2021/08/25 01:39:56;;;;;;;6.55;2.13;;;;;;;9.94;100.00;101526.69;5055436;28;20396;-79
2021/08/25 01:42:21;;;;;;;4.80;2.00;;;;;;;9.98;100.00;101529.28;5055031;28;20082;-78
2021/08/25 01:44:50;;;;;;;6.47;1.90;;;;;;;10.03;100.00;101518.91;5054870;28;20033;-78
2021/08/25 01:47:17;;;;;;;7.07;2.67;;;;;;;10.07;100.00;101510.28;5055314;28;20374;-79
2021/08/25 01:49:43;;;;;;;5.65;2.17;;;;;;;10.04;100.00;101521.50;5055294;28;20021;-79
2021/08/25 01:52:09;;;;;;;6.22;2.30;;;;;;;9.93;100.00;101517.19;5055052;28;20021;-79
2021/08/25 01:54:36;;;;;;;5.25;1.98;;;;;;;9.75;100.00;101526.66;5053522;28;20017;-78
2021/08/25 01:57:01;;;;;;;7.28;1.90;;;;;;;9.74;100.00;101524.94;5055406;28;20409;-78
2021/08/25 01:59:26;;;;;;;5.93;2.05;;;;;;;9.67;100.00;101521.50;5055312;28;20020;-79
2021/08/25 02:01:51;;;;;;;5.88;2.33;;;;;;;9.75;100.00;101511.13;5053389;28;20442;-78
2021/08/25 02:04:17;;;;;;;6.00;2.20;;;;;;;9.84;100.00;101502.50;5054482;28;20025;-78
2021/08/25 02:06:42;;;;;;;5.20;1.90;;;;;;;9.80;100.00;101495.59;5075704;22;20044;-82
2021/08/25 02:09:07;;;;;;;5.30;1.92;;;;;;;9.86;100.00;101495.59;5053637;28;20469;-81
2021/08/25 02:11:33;;;;;;;6.40;2.20;;;;;;;9.83;100.00;101483.50;5053406;28;20499;-81
2021/08/25 02:13:58;;;;;;;9.90;2.60;;;;;;;9.87;100.00;101489.53;5052048;28;20094;-81
2021/08/25 02:16:23;;;;;;;7.63;2.58;;;;;;;9.97;100.00;101477.44;5051993;28;20052;-82
2021/08/25 02:18:49;;;;;;;6.00;2.70;;;;;;;10.11;100.00;101479.16;5052196;28;20028;-82
2021/08/25 02:21:14;;;;;;;7.07;2.75;;;;;;;10.17;100.00;101474.84;5052100;28;20540;-82
2021/08/25 02:23:39;;;;;;;7.00;2.70;;;;;;;10.26;100.00;101470.53;5051904;28;20071;-82
2021/08/25 02:26:05;;;;;;;8.30;3.42;;;;;;;10.29;100.00;101470.50;5051978;28;20039;-82
2021/08/25 02:28:31;;;;;;;7.22;3.78;;;;;;;10.25;100.00;101462.69;5051890;28;20036;-82
2021/08/25 02:30:56;;;;;;;10.90;4.13;;;;;;;10.21;100.00;101466.19;5053249;28;20370;-82
2021/08/25 02:33:21;;;;;;;7.60;4.30;;;;;;;10.25;100.00;101461.00;5053261;28;20044;-82
2021/08/25 02:35:47;;;;;;;9.68;4.43;;;;;;;10.28;100.00;101465.31;5053053;28;20060;-81
2021/08/25 02:38:12;;;;;;;7.47;3.78;;;;;;;10.32;100.00;101467.06;5053103;28;20032;-82
2021/08/25 02:40:38;;;;;;;9.20;4.10;;;;;;;10.27;100.00;101469.66;5053225;28;20074;-81
2021/08/25 02:43:04;;;;;;;8.98;4.55;;;;;;;10.25;100.00;101470.47;5054960;28;20040;-82
2021/08/25 02:45:29;;;;;;;14.80;4.57;;;;;;;10.32;100.00;101454.94;5055953;28;20021;-81
2021/08/25 02:47:54;;;;;;;9.88;4.63;;;;;;;10.38;100.00;101454.06;5057097;28;20031;-81
2021/08/25 02:50:20;;;;;;;9.73;4.78;;;;;;;10.32;100.00;101462.72;5057139;28;20021;-81
2021/08/25 02:52:45;;;;;;;9.70;5.25;;;;;;;10.25;100.00;101458.41;5055900;28;20024;-81
2021/08/25 02:55:11;;;;;;;9.52;5.38;;;;;;;10.18;100.00;101450.63;5055916;28;20050;-82
2021/08/25 02:57:36;;;;;;;9.52;5.40;;;;;;;10.20;100.00;101447.16;5055851;28;20025;-82
2021/08/25 03:00:03;;;;;;;11.43;6.18;;;;;;;10.22;100.00;101450.63;5057035;28;20024;-81
2021/08/25 03:02:28;;;;;;;11.00;6.93;;;;;;;10.22;100.00;101439.38;5056687;28;20124;-81
2021/08/25 03:04:54;;;;;;;16.02;8.98;;;;;;;10.26;100.00;101441.13;5055644;28;20104;-81
2021/08/25 03:07:19;;;;;;;15.23;9.50;;;;;;;10.26;100.00;101435.94;5056481;28;20477;-82
2021/08/25 03:09:45;;;;;;;15.43;9.10;;;;;;;10.19;100.00;101431.59;5055366;28;20086;-81
2021/08/25 03:12:10;;;;;;;17.52;8.93;;;;;;;10.17;100.00;101426.44;5056719;28;20024;-82
2021/08/25 03:14:35;;;;;;;15.48;9.45;;;;;;;10.43;100.00;101426.38;5056757;28;20021;-82
2021/08/25 03:17:00;;;;;;;19.50;11.15;;;;;;;10.43;100.00;101418.59;5055297;28;20021;-82
2021/08/25 03:19:26;;;;;;;14.20;9.38;;;;;;;10.31;100.00;101418.63;5055689;28;20532;-81
2021/08/25 03:21:51;;;;;;;17.73;9.98;;;;;;;10.24;100.00;101415.19;5055383;28;20127;-82
2021/08/25 03:24:16;;;;;;;17.70;10.38;;;;;;;10.29;100.00;101412.63;5055125;28;20033;-82
2021/08/25 03:26:41;;;;;;;20.08;10.10;;;;;;;10.28;100.00;101406.56;5056474;28;20503;-82
2021/08/25 03:29:07;;;;;;;17.50;11.15;;;;;;;10.34;100.00;101416.03;5056740;28;20078;-82
2021/08/25 03:31:32;;;;;;;17.10;10.57;;;;;;;10.39;100.00;101408.25;5056375;28;20056;-81
2021/08/25 03:33:57;;;;;;;17.30;10.77;;;;;;;10.41;100.00;101411.72;5055126;28;20091;-82
2021/08/25 03:36:23;;;;;;;23.42;11.95;;;;;;;10.52;100.00;101404.72;5056135;28;20465;-82
2021/08/25 03:38:48;;;;;;;19.88;11.48;;;;;;;10.56;100.00;101401.25;5054962;28;20025;-81
2021/08/25 03:41:13;;;;;;;17.77;9.95;;;;;;;10.65;100.00;101408.13;5056123;28;20074;-82
2021/08/25 03:43:38;;;;;;;15.07;9.55;;;;;;;10.64;100.00;101399.50;5056271;28;20487;-82
2021/08/25 03:46:04;;;;;;;18.63;11.38;;;;;;;10.71;100.00;101400.31;5056130;28;20083;-82
2021/08/25 03:48:29;;;;;;;17.63;11.55;;;;;;;10.76;100.00;101399.44;5056116;28;20036;-82
2021/08/25 03:50:54;;;;;;;17.23;10.40;;;;;;;10.85;100.00;101408.91;5054825;28;20392;-82
2021/08/25 03:53:20;;;;;;;18.08;11.85;;;;;;;11.07;100.00;101401.84;5054759;28;20013;-82
2021/08/25 03:55:45;;;;;;;19.88;13.18;;;;;;;11.16;100.00;101393.13;5054551;28;20046;-82
2021/08/25 03:58:10;;;;;;;19.65;13.07;;;;;;;11.27;100.00;101393.91;5054810;28;20032;-82
2021/08/25 04:00:36;;;;;;;18.63;13.40;;;;;;;11.33;100.00;101391.28;5054521;28;20037;-81
2021/08/25 04:03:01;;;;;;;20.67;12.93;;;;;;;11.31;100.00;101387.81;5055653;28;20488;-82
2021/08/25 04:05:26;;;;;;;20.38;12.90;;;;;;;11.31;100.00;101389.56;5056168;28;20115;-82
2021/08/25 04:07:51;;;;;;;20.38;13.32;;;;;;;11.25;100.00;101380.94;5055609;28;20473;-81
2021/08/25 04:10:17;;;;;;;20.88;13.77;;;;;;;11.27;100.00;101381.78;5054239;28;20025;-82
2021/08/25 04:12:42;;;;;;;20.98;13.30;;;;;;;11.28;100.00;101373.13;5054221;28;20147;-82
2021/08/25 04:15:08;;;;;;;22.67;13.52;;;;;;;11.30;100.00;101367.94;5054257;28;20029;-82
2021/08/25 04:17:33;;;;;;;22.20;12.75;;;;;;;11.32;100.00;101373.09;5054079;28;20024;-82
2021/08/25 04:19:58;;;;;;;22.23;13.00;;;;;;;11.31;100.00;101367.03;5055551;28;20069;-83
2021/08/25 04:22:24;;;;;;;17.60;12.93;;;;;;;11.36;100.00;101374.78;5053954;28;20029;-82
2021/08/25 04:24:50;;;;;;;21.40;13.32;;;;;;;11.38;100.00;101362.66;5055531;28;20021;-83
2021/08/25 04:27:15;;;;;;;19.67;13.25;;;;;;;11.36;100.00;101360.09;5055369;28;20083;-83
2021/08/25 04:29:41;;;;;;;19.27;13.45;;;;;;;11.37;100.00;101360.94;5055311;28;20033;-82
2021/08/25 04:32:06;;;;;;;21.00;13.05;;;;;;;11.35;100.00;101367.88;5055133;28;20029;-82
2021/08/25 04:34:32;;;;;;;17.60;13.25;;;;;;;11.42;100.00;101370.41;5054035;28;20483;-82
2021/08/25 04:36:57;;;;;;;20.15;14.05;;;;;;;11.47;100.00;101358.22;5054953;28;20060;-82
2021/08/25 04:39:22;;;;;;;23.35;15.50;;;;;;;11.55;100.00;101358.19;5055288;28;20069;-82
2021/08/25 04:41:47;;;;;;;19.40;14.25;;;;;;;11.63;100.00;101360.69;5053776;28;20094;-82
2021/08/25 04:44:13;;;;;;;21.88;14.82;;;;;;;11.66;100.00;101355.47;5053926;28;20500;-82
2021/08/25 04:46:38;;;;;;;22.95;15.05;;;;;;;11.67;100.00;101350.25;5053433;28;20029;-82
2021/08/25 04:49:03;;;;;;;22.42;15.50;;;;;;;11.72;100.00;101343.25;5053742;28;20024;-83
2021/08/25 04:51:28;;;;;;;21.25;14.18;;;;;;;11.77;100.00;101339.78;5053505;28;20036;-82
2021/08/25 04:53:54;;;;;;;22.67;15.63;;;;;;;11.73;100.00;101344.16;5053525;28;20393;-82
2021/08/25 04:56:19;;;;;;;20.20;15.00;;;;;;;11.74;100.00;101340.66;5053971;28;20056;-83
2021/08/25 04:58:44;;;;;;;22.70;16.40;;;;;;;11.76;100.00;101341.53;5053494;28;20056;-83
2021/08/25 05:01:09;;;;;;;20.02;14.45;;;;;;;11.72;100.00;101334.59;5053343;28;20024;-83
2021/08/25 05:03:35;;;;;;;21.17;15.57;;;;;;;11.78;100.00;101336.28;5055248;28;20028;-82
2021/08/25 05:06:10;;;;;;;21.88;15.77;;;;;;;11.85;100.00;101330.16;5053434;28;20037;-82
2021/08/25 05:08:36;;;;;;;24.45;16.10;;;;;;;11.86;100.00;101324.13;5055793;28;20508;-82
2021/08/25 05:11:02;;;;;;;26.08;16.05;;;;;;;11.85;100.00;101320.63;5054603;28;20107;-82
2021/08/25 05:13:27;;;;;;;22.83;16.48;;;;;;;11.89;100.00;101317.13;5053317;28;20052;-82
2021/08/25 05:15:52;;;;;;;19.77;14.27;;;;;;;11.90;100.00;101313.66;5053200;28;20029;-82
2021/08/25 05:18:17;;;;;;;25.20;15.88;;;;;;;11.93;100.00;101316.22;5054652;28;20020;-83
2021/08/25 05:20:43;;;;;;;25.20;16.23;;;;;;;11.98;100.00;101305.78;5053061;28;20025;-83
2021/08/25 05:23:08;;;;;;;21.52;13.93;;;;;;;12.07;100.00;101308.25;5054255;28;20035;-82
2021/08/25 05:25:33;;;;;;;19.20;13.80;;;;;;;12.00;100.00;101303.13;5053189;28;20028;-82
2021/08/25 05:27:59;;;;;;;24.15;14.10;;;;;;;12.04;100.00;101308.31;5054246;28;20025;-82
2021/08/25 05:30:24;;;;;;;20.67;12.23;;;;;;;12.17;100.00;101299.44;5052941;28;20025;-82
2021/08/25 05:32:52;;;;;;;19.60;12.85;;;;;;;12.19;100.00;101296.81;5052753;28;20027;-81
2021/08/25 05:35:23;;;;;;;15.40;10.15;;;;;;;12.43;100.00;101300.84;5056505;28;20025;-82
2021/08/25 05:37:49;;;;;;;16.52;10.48;;;;;;;12.43;100.00;101295.63;5056084;28;20477;-81
2021/08/25 05:40:16;;;;;;;17.77;10.27;;;;;;;12.45;100.00;101296.47;5055212;28;20120;-82
2021/08/25 05:42:42;;;;;;;14.65;9.13;;;;;;;12.51;100.00;101293.78;5056316;28;20032;-82
2021/08/25 05:45:09;;;;;;;15.95;8.20;;;;;;;12.73;100.00;101299.53;5055860;28;20389;-81
2021/08/25 05:47:35;;;;;;;15.05;8.07;;;;;;;12.84;100.00;101292.44;5054125;28;20025;-82
2021/08/25 05:50:00;;;;;;;14.93;7.95;;;;;;;12.94;100.00;101295.75;5054376;28;20538;-82
2021/08/25 05:52:25;;;;;;;12.75;7.82;;;;;;;12.99;100.00;101301.75;5053684;28;20111;-82
2021/08/25 05:54:50;;;;;;;12.98;7.72;;;;;;;13.06;100.00;101298.16;5055175;28;20055;-81
2021/08/25 05:57:16;;;;;;;15.02;7.05;;;;;;;13.21;100.00;101303.97;5055534;28;20036;-82
2021/08/25 05:59:41;;;;;;;13.75;7.28;;;;;;;13.20;100.00;101304.84;5054938;28;20413;-82
2021/08/25 06:02:06;;;;;;;9.68;6.28;;;;;;;13.39;100.00;101295.84;5058531;28;20075;-82
2021/08/25 06:04:31;;;;;;;12.52;6.28;;;;;;;13.44;100.00;101299.25;5056351;28;20025;-82
2021/08/25 06:06:57;;;;;;;11.75;5.70;;;;;;;14.20;100.00;101296.03;5055746;28;20029;-82
2021/08/25 06:09:22;;;;;;;12.48;5.53;;;;;;;14.74;100.00;101286.09;5056913;28;20039;-82
2021/08/25 06:11:47;;;;;;;8.90;4.97;;;;;;;15.18;100.00;101272.88;5057073;28;20061;-82
2021/08/25 06:14:13;;;;;;;9.70;4.80;;;;;;;15.62;100.00;101271.66;5056600;28;20481;-83
2021/08/25 06:16:38;;;;;;;8.45;4.47;;;;;;;16.03;100.00;101277.50;5053924;28;20021;-82
2021/08/25 06:19:04;;;;;;;10.35;4.28;;;;;;;16.37;100.00;101265.16;5053808;28;20059;-82
2021/08/25 06:21:29;;;;;;;8.32;3.53;;;;;;;16.56;100.00;101266.28;5053225;28;20125;-82
2021/08/25 06:23:54;;;;;;;6.95;3.53;;;;;;;16.44;100.00;101261.44;5054278;28;20107;-82
2021/08/25 06:26:20;;;;;;;8.80;3.28;;;;;;;16.49;100.00;101256.91;5052877;28;20017;-82
2021/08/25 06:28:45;;;;;;;10.48;3.45;;;;;;;16.66;100.00;101257.25;5054412;28;20032;-82
2021/08/25 06:31:10;;;;;;;7.78;3.00;;;;;;;16.64;100.00;101258.19;5052860;28;20017;-82
2021/08/25 06:33:35;;;;;;;7.53;2.70;;;;;;;17.02;100.00;101251.72;5054758;28;20021;-82
2021/08/25 06:36:01;;;;;;;8.23;3.08;;;;;;;17.16;100.00;101253.88;5052942;28;20079;-82
2021/08/25 06:38:26;;;;;;;8.73;3.08;;;;;;;16.98;100.00;101250.13;5053298;28;20028;-82
2021/08/25 06:40:51;;;;;;;5.78;2.65;;;;;;;17.46;100.00;101251.94;5054276;28;20039;-82
2021/08/25 06:43:17;;;;;;;9.13;2.75;;;;;;;17.66;100.00;101244.19;5055089;28;20532;-82
2021/08/25 06:45:42;;;;;;;10.10;3.72;;;;;;;17.64;100.00;101256.53;5056218;28;20074;-82
2021/08/25 06:48:07;;;;;;;8.90;3.53;;;;;;;17.58;100.00;101251.50;5056818;28;20025;-82
2021/08/25 06:50:32;;;;;;;9.63;3.92;;;;;;;18.09;100.00;101253.13;5054463;28;20040;-82
2021/08/25 06:52:58;;;;;;;8.55;3.30;;;;;;;17.99;100.00;101250.91;5053131;28;20392;-82
2021/08/25 06:55:23;;;;;;;7.13;3.03;;;;;;;17.72;100.00;101259.72;5052895;28;20025;-82
2021/08/25 06:57:48;;;;;;;8.13;3.95;;;;;;;18.07;100.00;101251.47;5052820;28;20025;-82
2021/08/25 07:00:14;;;;;;;6.30;2.92;;;;;;;18.23;100.00;101257.00;5054638;28;20025;-82
2021/08/25 07:02:39;;;;;;;12.43;3.53;;;;;;;18.82;100.00;101243.25;5052559;28;20028;-82
2021/08/25 07:05:06;;;;;;;9.48;3.17;;;;;;;18.89;100.00;101236.81;5052604;28;20067;-83
2021/08/25 07:07:32;;;;;;;8.45;3.08;;;;;;;18.32;100.00;101236.47;5053251;28;20104;-83
2021/08/25 07:09:57;;;;;;;7.68;3.28;;;;;;;17.81;100.00;101218.34;5055116;28;20053;-82
2021/08/25 07:12:23;;;;;;;7.00;2.95;;;;;;;18.62;100.00;101209.88;5055795;28;20100;-81
2021/08/25 07:14:49;;;;;;;9.35;3.25;;;;;;;18.07;100.00;101212.97;5054495;28;20025;-82
2021/08/25 07:17:15;;;;;;;7.70;3.28;;;;;;;17.97;100.00;101211.59;5054760;28;20036;-82
2021/08/25 07:19:41;;;;;;;9.65;3.50;;;;;;;17.78;100.00;101211.44;5056710;28;20448;-82
2021/08/25 07:22:07;;;;;;;8.30;3.40;;;;;;;17.97;100.00;101205.50;5055094;28;20087;-82
2021/08/25 07:24:33;;;;;;;8.63;3.45;;;;;;;18.87;100.00;101199.22;5055733;28;20029;-82
2021/08/25 07:26:58;;;;;;;8.82;3.63;;;;;;;18.55;100.00;101193.50;5055714;28;20033;-82
2021/08/25 07:29:23;;;;;;;10.82;3.95;;;;;;;17.39;100.00;101195.38;5056436;28;20017;-82
2021/08/25 07:31:48;;;;;;;7.53;3.72;;;;;;;17.32;100.00;101197.34;5060232;28;20052;-82
2021/08/25 07:34:14;;;;;;;7.68;3.53;;;;;;;16.85;100.00;101197.28;5059411;28;20021;-82
2021/08/25 07:36:39;;;;;;;7.25;3.85;;;;;;;16.66;100.00;101194.38;5058487;28;20112;-82
2021/08/25 07:39:05;;;;;;;6.03;2.78;;;;;;;16.40;100.00;101181.28;5058515;28;20052;-82
2021/08/25 07:41:30;;;;;;;5.18;2.30;;;;;;;17.17;100.00;101183.03;5057904;28;20503;-82
2021/08/25 07:43:55;;;;;;;7.75;2.70;;;;;;;18.40;100.00;101167.88;5059995;28;20028;-82
2021/08/25 07:46:20;;;;;;;6.25;1.85;;;;;;;19.05;100.00;101169.50;5058588;28;20104;-82
2021/08/25 07:48:46;;;;;;;6.63;1.75;;;;;;;19.85;99.45;101157.16;5057891;28;20094;-82
2021/08/25 07:51:11;;;;;;;5.57;1.88;;;;;;;19.67;98.83;101161.50;5058441;28;20052;-82
2021/08/25 07:53:37;;;;;;;5.40;1.92;;;;;;;20.26;97.78;101144.66;5057931;28;20473;-80
2021/08/25 07:56:03;;;;;;;9.38;1.90;;;;;;;19.98;97.73;101148.63;5058245;28;20052;-80
2021/08/25 07:58:30;;;;;;;8.73;1.80;;;;;;;19.74;96.65;101150.63;5057896;28;20032;-80
2021/08/25 08:00:55;;;;;;;8.38;1.65;;;;;;;19.45;96.18;101151.09;5057255;28;20044;-80
2021/08/25 08:03:20;;;;;;;6.15;1.85;;;;;;;18.79;100.00;101154.88;5058713;28;20112;-82
2021/08/25 08:05:46;;;;;;;6.03;1.30;;;;;;;19.61;95.94;101149.47;5056049;28;20033;-82
2021/08/25 08:08:12;;;;;;;8.00;1.70;;;;;;;19.83;94.03;101151.13;5056310;28;20439;-82
2021/08/25 08:10:37;;;;;;;4.68;1.20;;;;;;;20.22;87.47;101141.28;5079399;22;20043;-80
2021/08/25 08:13:02;;;;;;;6.40;1.38;;;;;;;19.22;93.68;101150.38;5056125;28;20021;-80
2021/08/25 08:15:29;;;;;;;3.58;0.88;;;;;;;18.89;96.92;101155.31;5057822;28;20389;-80
2021/08/25 08:17:55;;;;;;;4.60;1.10;;;;;;;19.93;90.17;101155.03;5058261;28;20039;-81
2021/08/25 08:20:21;;;;;;;5.68;1.30;;;;;;;19.68;92.63;101148.28;5058789;28;20029;-80
2021/08/25 08:22:46;;;;;;;4.57;1.00;;;;;;;19.46;91.55;101145.78;5057886;28;20501;-81
2021/08/25 08:25:11;;;;;;;3.45;1.13;;;;;;;19.20;94.98;101143.47;5057960;28;20056;-80
2021/08/25 08:27:36;;;;;;;3.15;1.15;;;;;;;18.25;99.16;101142.22;5056794;28;20046;-80
2021/08/25 08:30:03;;;;;;;6.65;1.48;;;;;;;19.62;90.16;101129.28;5057702;28;20393;-81
2021/08/25 08:32:29;;;;;;;3.67;1.00;;;;;;;18.77;99.31;101137.47;5057210;28;20429;-81
2021/08/25 08:34:54;;;;;;;6.57;1.40;;;;;;;18.62;96.21;101137.16;5057196;28;20081;-81
2021/08/25 08:37:19;;;;;;;2.92;0.90;;;;;;;18.42;96.87;101133.69;5058797;28;20059;-80
2021/08/25 08:39:44;;;;;;;4.20;1.15;;;;;;;18.71;95.27;101130.66;5056338;28;20021;-80
2021/08/25 08:42:24;;;;;;;4.07;1.10;;;;;;;17.72;100.00;101118.03;5058179;28;20057;-81
2021/08/25 08:44:51;;;;;;;2.75;0.90;;;;;;;19.16;93.37;101119.09;5057357;28;20025;-80
2021/08/25 08:47:17;;;;;;;4.82;1.20;;;;;;;18.69;95.29;101121.13;5058655;28;20440;-80
2021/08/25 08:49:44;;;;;;;4.90;1.10;;;;;;;20.08;88.99;101119.22;5059149;28;20021;-81
2021/08/25 08:52:09;;;;;;;5.07;0.88;;;;;;;18.70;92.09;101125.47;5056831;28;20020;-81
2021/08/25 08:54:35;;;;;;;4.90;1.00;;;;;;;19.83;85.01;101117.75;5060951;28;20037;-80
2021/08/25 08:57:00;;;;;;;4.40;1.23;;;;;;;20.35;82.50;101119.59;5056210;28;20017;-80
2021/08/25 08:59:25;;;;;;;2.95;0.70;;;;;;;20.62;78.34;101114.75;5058223;28;20043;-81
2021/08/25 09:01:50;;;;;;;3.75;0.70;;;;;;;21.13;77.08;101107.69;5056341;28;20096;-81
2021/08/25 09:04:36;;;;;;;3.75;0.90;;;;;;;19.69;81.41;101109.66;5057769;28;20021;-81
2021/08/25 09:07:03;;;;;;;2.08;0.63;;;;;;;20.24;78.17;101099.09;5055932;28;20477;-81
2021/08/25 09:09:49;;;;;;;4.40;0.77;;;;;;;19.33;86.39;101105.16;5056948;28;20025;-80
2021/08/25 09:12:14;;;;;;;4.53;0.70;;;;;;;18.74;90.22;101092.91;5056352;28;20036;-81
2021/08/25 09:14:39;;;;;;;2.88;0.73;;;;;;;18.86;90.34;101087.13;5056663;28;20017;-80
2021/08/25 09:17:04;;;;;;;4.22;0.88;;;;;;;18.70;93.54;101080.81;5055328;28;20025;-81
2021/08/25 09:19:35;;;;;;;3.75;0.88;;;;;;;18.73;92.99;101071.03;5057190;28;20028;-80
2021/08/25 09:22:00;;;;;;;4.22;0.80;;;;;;;18.26;94.25;101059.94;5056876;28;20055;-81
2021/08/25 09:24:39;;;;;;;1.98;0.68;;;;;;;18.00;96.01;101064.47;5057320;28;20025;-81
2021/08/25 09:27:13;;;;;;;2.50;0.75;;;;;;;19.16;90.60;101050.72;5057073;28;20104;-81
2021/08/25 09:29:41;;;;;;;2.65;0.85;;;;;;;19.28;89.18;101058.03;5056722;28;20435;-81
2021/08/25 09:32:23;;;;;;;4.05;0.70;;;;;;;19.16;90.57;101048.09;5056060;28;20029;-80
2021/08/25 09:34:59;;;;;;;4.65;1.08;;;;;;;20.05;83.86;101046.47;5053458;28;20479;-82
2021/08/25 09:37:26;;;;;;;2.33;0.60;;;;;;;19.16;87.36;101047.22;5053104;28;20079;-82
2021/08/25 09:39:54;;;;;;;2.03;0.60;;;;;;;18.64;90.45;101064.38;5052987;28;20111;-81
2021/08/25 09:42:21;;;;;;;3.22;0.60;;;;;;;18.44;90.51;101059.13;5052882;28;20056;-80
2021/08/25 09:44:59;;;;;;;2.97;0.70;;;;;;;18.88;90.73;101053.75;5052922;28;20086;-80
2021/08/25 09:47:44;;;;;;;2.92;0.50;;;;;;;20.54;82.58;101049.28;5053058;28;20028;-80
2021/08/25 09:50:09;;;;;;;1.42;0.50;;;;;;;21.55;75.52;101035.03;5054451;28;20370;-81
2021/08/25 09:52:35;;;;;;;2.03;0.52;;;;;;;21.50;71.24;101045.03;5054448;28;20031;-81
2021/08/25 09:55:00;;;;;;;3.85;0.60;;;;;;;20.68;78.32;101030.09;5053203;28;20059;-80
2021/08/25 09:57:39;;;;;;;3.08;0.60;;;;;;;19.66;83.76;101030.84;5054349;28;20035;-80
2021/08/25 10:00:06;;;;;;;3.20;0.60;;;;;;;18.50;88.98;101032.59;5054888;28;20021;-80
2021/08/25 10:02:31;;;;;;;2.22;0.50;;;;;;;18.51;91.17;101026.44;5053510;28;20025;-81
2021/08/25 10:04:56;;;;;;;2.90;0.50;;;;;;;18.36;89.79;101016.59;5053931;28;20028;-80
2021/08/25 10:07:22;;;;;;;3.40;0.73;;;;;;;20.89;79.70;101009.63;5053448;28;20035;-81
2021/08/25 10:09:47;;;;;;;2.97;0.60;;;;;;;20.45;81.34;101005.78;5053452;28;20040;-80
2021/08/25 10:12:13;;;;;;;2.25;0.52;;;;;;;20.51;79.90;100993.22;5053690;28;20481;-80
2021/08/25 10:14:39;;;;;;;5.63;1.42;;;;;;;20.16;78.23;100983.56;5055371;28;20021;-80
2021/08/25 10:17:04;;;;;;;2.70;0.65;;;;;;;19.35;82.51;100979.69;5055867;28;20107;-80
2021/08/25 10:19:36;;;;;;;3.25;0.70;;;;;;;19.08;87.04;100974.78;5054912;28;20020;-80
2021/08/25 10:22:14;;;;;;;2.90;0.70;;;;;;;18.57;89.19;100971.00;5055396;28;20025;-80
2021/08/25 10:24:48;;;;;;;2.42;0.70;;;;;;;18.47;90.93;100972.31;5053153;28;20033;-80
2021/08/25 10:27:14;;;;;;;3.22;0.70;;;;;;;18.39;94.21;100964.78;5055276;28;20021;-80
2021/08/25 10:30:01;;;;;;;2.35;0.60;;;;;;;18.09;95.00;100977.47;5054892;28;20162;-80
2021/08/25 10:32:27;;;;;;;3.00;0.70;;;;;;;18.43;94.59;100973.38;5055924;28;20047;-80
2021/08/25 10:35:11;;;;;;;5.05;0.57;;;;;;;18.48;91.99;100968.78;5055114;28;20492;-80
2021/08/25 10:37:36;;;;;;;3.25;1.08;;;;;;;18.83;90.06;100966.34;5054476;28;20047;-80
2021/08/25 10:40:05;;;;;;;3.03;0.73;;;;;;;19.24;88.86;100958.28;5054247;28;20032;-80
2021/08/25 10:42:48;;;;;;;1.63;0.50;;;;;;;18.64;92.02;100961.91;5053197;28;20017;-80
2021/08/25 10:45:15;;;;;;;4.63;0.95;;;;;;;18.08;95.51;100957.41;5054210;28;20108;-80
2021/08/25 10:47:58;;;;;;;3.45;0.98;;;;;;;18.07;98.04;100950.44;5054519;28;20025;-80
2021/08/25 10:50:44;;;;;;;3.45;0.52;;;;;;;17.91;99.45;100944.97;5054514;28;20025;-80
2021/08/25 10:53:27;;;;;;;3.75;0.60;;;;;;;17.77;100.00;100933.34;5054231;28;20025;-80
2021/08/25 10:56:10;;;;;;;4.73;0.73;;;;;;;17.59;100.00;100930.56;5054435;28;20028;-80
2021/08/25 10:58:46;;;;;;;2.65;0.70;;;;;;;17.31;100.00;100927.38;5053591;28;20078;-80
2021/08/25 11:01:34;;;;;;;2.80;0.70;;;;;;;17.75;100.00;100922.06;5054388;28;20025;-80
2021/08/25 11:04:06;;;;;;;3.25;0.60;;;;;;;18.12;97.15;100929.22;5056244;28;20052;-80
2021/08/25 11:06:37;;;;;;;4.95;1.05;;;;;;;17.85;98.36;100929.50;5058999;28;20032;-80
2021/08/25 11:09:19;;;;;;;2.78;0.68;;;;;;;17.58;100.00;100923.63;5059205;28;20045;-80
2021/08/25 11:11:45;;;;;;;3.08;0.50;;;;;;;17.34;100.00;100922.00;5058680;28;20033;-80
2021/08/25 11:14:28;;;;;;;2.15;0.55;;;;;;;17.07;100.00;100911.69;5058798;28;20139;-80
2021/08/25 11:16:56;;;;;;;4.65;0.75;;;;;;;17.04;100.00;100914.44;5058742;28;20095;-80